Mudcat — WCY8255 — position and weather

sailwx.info

Track history (hours):
 
Tides and Currents Weather Stations Pressure Air Temp Water Temp Dewpoint Dewpoint Depression Visibility Wind Speed Wind Dir Waves Ship Positions

Mudcat

Owner: TAURUS MARINE, SAN FRANCISCO, CA. More information available from US FCC via Universal Licensing System and Coast Guard Vessel Documentation Center.

Last reported at 2017-Jan-18 17:23 UTC. Time now 2017-Jan-19 17:04 UTC.
Position N 47°39' W 122°20'.

Length 22 m; draft 2 m.

Type: Tug. MMSI: 366969750.

Date/timePositionNaut miles runAvg speedWind from/ knotsBaromVisibWave heightAir tempDewpointWater temp
2017-Jan-18 17:23N 47°39' W 122°20'  
2017-Jan-15 00:34N 47°39' W 122°20'3 3.2
2017-Jan-14 23:33N 47°40' W 122°25'1 1.1
2017-Jan-14 22:33N 47°40' W 122°23'3 3.3
2017-Jan-14 21:33N 47°39' W 122°18'1 1.3
2017-Jan-14 20:33N 47°39' W 122°20'2 0.1
2017-Jan-13 22:33N 47°40' W 122°23'1 1.3
2017-Jan-13 21:33N 47°40' W 122°24'3 2.6
2017-Jan-13 20:33N 47°39' W 122°21'3 2.9
2017-Jan-13 19:33N 47°39' W 122°17'1 0.6
2017-Jan-13 18:33N 47°39' W 122°18'0 0.0
2017-Jan-12 17:33N 47°39' W 122°17'4 3.8
2017-Jan-12 16:33N 47°42' W 122°15'3 3.0
2017-Jan-12 15:33N 47°45' W 122°15'0 0.0
2017-Jan-12 14:33N 47°45' W 122°15'5 5.2
2017-Jan-12 13:33N 47°40' W 122°15'4 4.1
2017-Jan-12 12:33N 47°39' W 122°20'0 0.0
2017-Jan-11 22:23N 47°39' W 122°20'3 3.3
2017-Jan-11 21:33N 47°40' W 122°24'0 0.2
2017-Jan-11 20:33N 47°40' W 122°24'3 3.4
2017-Jan-11 19:33N 47°39' W 122°19'2 1.6
2017-Jan-11 18:33N 47°39' W 122°17'0 0.0
2017-Jan-11 17:33N 47°39' W 122°17'1 0.9
2017-Jan-11 16:33N 47°38' W 122°16'2 2.3
2017-Jan-11 15:33N 47°39' W 122°19'2 0.1
2017-Jan-10 18:34N 47°39' W 122°21'1 1.0
2017-Jan-10 17:33N 47°40' W 122°23'1 0.0
2017-Jan-10 00:33N 47°40' W 122°23'0 0.3
2017-Jan-09 23:33N 47°40' W 122°24'2 2.1
2017-Jan-09 22:33N 47°39' W 122°21'3 3.1
2017-Jan-09 21:33N 47°39' W 122°17'5 4.9
2017-Jan-09 20:33N 47°44' W 122°16'2 1.7
2017-Jan-09 19:25N 47°45' W 122°15'3 3.4
2017-Jan-09 18:32N 47°42' W 122°15'4 4.2
2017-Jan-09 17:33N 47°38' W 122°15'0 0.0
2017-Jan-09 16:33N 47°38' W 122°15'0 0.5
2017-Jan-09 15:33N 47°38' W 122°15'1 0.6
2017-Jan-09 14:33N 47°38' W 122°15'4 3.5
2017-Jan-09 13:33N 47°39' W 122°20'  
Track history (hours):
 
Tides and Currents Weather Stations Pressure Air Temp Water Temp Dewpoint Dewpoint Depression Visibility Wind Speed Wind Dir Waves Ship Positions

Mudcat

Owner: TAURUS MARINE, SAN FRANCISCO, CA. More information available from US FCC via Universal Licensing System and Coast Guard Vessel Documentation Center.

Last reported at 2017-Jan-18 17:23 UTC. Time now 2017-Jan-19 17:04 UTC.
Position N 47°39' W 122°20'.

Length 22 m; draft 2 m.

Type: Tug. MMSI: 366969750.

Date/timePositionNaut miles runAvg speedWind from/ knotsBaromVisibWave heightAir tempDewpointWater temp
2017-Jan-18 17:23N 47°39' W 122°20'  
2017-Jan-15 00:34N 47°39' W 122°20'3 3.2
2017-Jan-14 23:33N 47°40' W 122°25'1 1.1
2017-Jan-14 22:33N 47°40' W 122°23'3 3.3
2017-Jan-14 21:33N 47°39' W 122°18'1 1.3
2017-Jan-14 20:33N 47°39' W 122°20'2 0.1
2017-Jan-13 22:33N 47°40' W 122°23'1 1.3
2017-Jan-13 21:33N 47°40' W 122°24'3 2.6
2017-Jan-13 20:33N 47°39' W 122°21'3 2.9
2017-Jan-13 19:33N 47°39' W 122°17'1 0.6
2017-Jan-13 18:33N 47°39' W 122°18'0 0.0
2017-Jan-12 17:33N 47°39' W 122°17'4 3.8
2017-Jan-12 16:33N 47°42' W 122°15'3 3.0
2017-Jan-12 15:33N 47°45' W 122°15'0 0.0
2017-Jan-12 14:33N 47°45' W 122°15'5 5.2
2017-Jan-12 13:33N 47°40' W 122°15'4 4.1
2017-Jan-12 12:33N 47°39' W 122°20'0 0.0
2017-Jan-11 22:23N 47°39' W 122°20'3 3.3
2017-Jan-11 21:33N 47°40' W 122°24'0 0.2
2017-Jan-11 20:33N 47°40' W 122°24'3 3.4
2017-Jan-11 19:33N 47°39' W 122°19'2 1.6
2017-Jan-11 18:33N 47°39' W 122°17'0 0.0
2017-Jan-11 17:33N 47°39' W 122°17'1 0.9
2017-Jan-11 16:33N 47°38' W 122°16'2 2.3
2017-Jan-11 15:33N 47°39' W 122°19'2 0.1
2017-Jan-10 18:34N 47°39' W 122°21'1 1.0
2017-Jan-10 17:33N 47°40' W 122°23'1 0.0
2017-Jan-10 00:33N 47°40' W 122°23'0 0.3
2017-Jan-09 23:33N 47°40' W 122°24'2 2.1
2017-Jan-09 22:33N 47°39' W 122°21'3 3.1
2017-Jan-09 21:33N 47°39' W 122°17'5 4.9
2017-Jan-09 20:33N 47°44' W 122°16'2 1.7
2017-Jan-09 19:25N 47°45' W 122°15'3 3.4
2017-Jan-09 18:32N 47°42' W 122°15'4 4.2
2017-Jan-09 17:33N 47°38' W 122°15'0 0.0
2017-Jan-09 16:33N 47°38' W 122°15'0 0.5
2017-Jan-09 15:33N 47°38' W 122°15'1 0.6
2017-Jan-09 14:33N 47°38' W 122°15'4 3.5
2017-Jan-09 13:33N 47°39' W 122°20'  

Dump ship's entire track history